createdAt,value
2019-02-18T00:02:17.857Z,21.53
2019-02-18T00:04:53.440Z,17.93
2019-02-18T00:07:27.683Z,29.97
2019-02-18T00:10:01.311Z,17.47
2019-02-18T00:12:38.574Z,20.13
2019-02-18T00:15:09.850Z,18.47
2019-02-18T00:17:46.465Z,21.30
2019-02-18T00:20:20.148Z,17.83
2019-02-18T00:23:02.751Z,19.63
2019-02-18T00:25:39.539Z,17.53
2019-02-18T00:28:12.593Z,20.17
2019-02-18T00:30:49.376Z,20.03
2019-02-18T00:33:22.155Z,21.97
2019-02-18T00:35:55.352Z,20.73
2019-02-18T00:38:29.149Z,17.90
2019-02-18T00:41:00.404Z,16.83
2019-02-18T00:43:36.391Z,17.87
2019-02-18T00:46:15.347Z,18.63
2019-02-18T00:48:43.620Z,16.67
2019-02-18T00:51:16.026Z,17.53
2019-02-18T00:53:56.008Z,18.43
2019-02-18T00:56:27.437Z,17.03
2019-02-18T00:59:00.105Z,19.13
2019-02-18T01:01:33.375Z,17.13
2019-02-18T01:04:10.053Z,16.87
2019-02-18T01:06:41.623Z,17.90
2019-02-18T01:09:17.804Z,20.73
2019-02-18T01:11:48.795Z,17.77
2019-02-18T01:14:21.330Z,16.60
2019-02-18T01:16:52.428Z,18.33
2019-02-18T01:19:27.236Z,20.00
2019-02-18T01:22:00.972Z,16.07
2019-02-18T01:24:35.522Z,18.33
2019-02-18T01:27:17.136Z,16.93
2019-02-18T01:30:08.329Z,18.53
2019-02-18T01:32:47.974Z,16.50
2019-02-18T01:35:31.543Z,18.77
2019-02-18T01:38:05.560Z,17.57
2019-02-18T01:41:00.625Z,19.47
2019-02-18T01:43:32.081Z,16.87
2019-02-18T01:46:03.084Z,18.73
2019-02-18T01:48:50.530Z,17.63
2019-02-18T01:51:23.262Z,17.40
2019-02-18T01:54:01.194Z,14.73
2019-02-18T01:56:32.056Z,18.17
2019-02-18T01:59:05.051Z,18.97
2019-02-18T02:01:59.451Z,19.20
2019-02-18T02:04:36.680Z,16.97
2019-02-18T02:07:11.454Z,18.33
2019-02-18T02:09:42.651Z,18.53
2019-02-18T02:12:18.886Z,16.03
2019-02-18T02:14:54.974Z,17.00
2019-02-18T02:17:26.162Z,19.07
2019-02-18T02:19:57.166Z,17.57
2019-02-18T02:22:29.576Z,19.20
2019-02-18T02:25:09.347Z,17.17
2019-02-18T02:27:49.845Z,16.63
2019-02-18T02:30:24.762Z,18.77
2019-02-18T02:32:56.493Z,15.47
2019-02-18T02:35:34.956Z,20.73
2019-02-18T02:38:13.267Z,15.80
2019-02-18T02:40:48.807Z,14.83
2019-02-18T02:43:23.389Z,16.23
2019-02-18T02:45:58.401Z,17.80
2019-02-18T02:48:31.792Z,16.10
2019-02-18T02:51:06.108Z,19.00
2019-02-18T02:53:41.310Z,15.77
2019-02-18T02:56:21.357Z,15.97
2019-02-18T02:58:57.129Z,21.40
2019-02-18T03:01:32.784Z,16.17
2019-02-18T03:04:04.985Z,15.60
2019-02-18T03:06:44.988Z,17.47
2019-02-18T03:09:25.775Z,16.77
2019-02-18T03:11:57.621Z,17.10
2019-02-18T03:14:34.261Z,15.47
2019-02-18T03:17:08.106Z,17.07
2019-02-18T03:19:44.241Z,16.23
2019-02-18T03:22:23.811Z,18.53
2019-02-18T03:25:35.680Z,14.23
2019-02-18T03:28:31.870Z,15.80
2019-02-18T03:31:36.920Z,15.27
2019-02-18T03:34:27.978Z,16.03
2019-02-18T03:37:02.286Z,17.57
2019-02-18T03:39:39.480Z,18.43
2019-02-18T03:42:15.974Z,20.17
2019-02-18T03:44:48.821Z,18.97
2019-02-18T03:47:21.058Z,14.90
2019-02-18T03:50:05.929Z,14.00
2019-02-18T03:52:37.711Z,17.40
2019-02-18T03:55:12.907Z,16.03
2019-02-18T03:57:46.615Z,17.33
2019-02-18T04:00:18.744Z,14.03
2019-02-18T04:02:49.957Z,16.33
2019-02-18T04:05:25.840Z,13.30
2019-02-18T04:07:58.459Z,17.43
2019-02-18T04:10:29.461Z,16.10
2019-02-18T04:13:02.887Z,21.80
2019-02-18T04:15:38.361Z,15.90
2019-02-18T04:18:14.387Z,16.23
2019-02-18T04:20:45.094Z,15.37
2019-02-18T04:23:18.855Z,17.03
2019-02-18T04:25:50.398Z,14.30
2019-02-18T04:28:21.459Z,16.70
2019-02-18T04:30:56.420Z,14.17
2019-02-18T04:33:28.758Z,15.73
2019-02-18T04:36:04.614Z,19.17
2019-02-18T04:38:39.552Z,16.23
2019-02-18T04:41:10.906Z,16.37
2019-02-18T04:43:44.203Z,15.63
2019-02-18T04:46:15.833Z,16.40
2019-02-18T04:48:54.481Z,15.23
2019-02-18T04:51:26.044Z,15.33
2019-02-18T04:54:01.591Z,16.00
2019-02-18T04:56:35.489Z,12.97
2019-02-18T04:59:07.839Z,15.80
2019-02-18T05:01:43.079Z,15.67
2019-02-18T05:04:17.311Z,16.23
2019-02-18T05:06:53.335Z,14.30
2019-02-18T05:09:29.367Z,15.23
2019-02-18T05:12:01.261Z,14.90
2019-02-18T05:14:32.303Z,16.37
2019-02-18T05:17:06.006Z,17.03
2019-02-18T05:19:37.278Z,16.07
2019-02-18T05:22:08.510Z,14.60
2019-02-18T05:24:40.132Z,15.63
2019-02-18T05:27:12.296Z,15.60
2019-02-18T05:29:43.383Z,14.80
2019-02-18T05:32:15.380Z,16.80
2019-02-18T05:34:47.913Z,12.10
2019-02-18T05:37:23.265Z,15.07
2019-02-18T05:39:57.569Z,16.10
2019-02-18T05:42:32.405Z,16.17
2019-02-18T05:45:07.977Z,14.57
2019-02-18T05:47:40.090Z,15.37
2019-02-18T05:50:18.845Z,13.17
2019-02-18T05:52:49.710Z,17.40
2019-02-18T05:55:20.720Z,15.60
2019-02-18T05:58:00.203Z,15.53
2019-02-18T06:00:33.274Z,15.43
2019-02-18T06:03:06.042Z,15.43
2019-02-18T06:05:51.004Z,15.60
2019-02-18T06:08:19.377Z,14.63
2019-02-18T06:10:51.753Z,16.77
2019-02-18T06:13:25.774Z,19.10
2019-02-18T06:15:57.164Z,24.73
2019-02-18T06:18:28.156Z,20.23
2019-02-18T06:21:01.331Z,14.40
2019-02-18T06:23:32.678Z,19.13
2019-02-18T06:26:04.082Z,14.67
2019-02-18T06:28:56.929Z,17.40
2019-02-18T06:31:30.525Z,15.97
2019-02-18T06:34:01.653Z,18.40
2019-02-18T06:36:35.536Z,17.47
2019-02-18T06:39:09.902Z,15.87
2019-02-18T06:41:43.970Z,16.73
2019-02-18T06:44:26.421Z,27.03
2019-02-18T06:47:08.861Z,17.43
2019-02-18T06:50:11.386Z,16.20
2019-02-18T06:52:47.143Z,16.90
2019-02-18T06:55:23.418Z,14.30
2019-02-18T06:58:19.227Z,27.90
2019-02-18T07:01:10.622Z,16.77
2019-02-18T07:04:00.702Z,14.83
2019-02-18T07:06:58.580Z,15.60
2019-02-18T07:10:01.938Z,17.67
2019-02-18T07:13:00.734Z,20.23
2019-02-18T07:15:44.915Z,16.87
2019-02-18T07:18:17.456Z,18.17
2019-02-18T07:21:06.416Z,16.37
2019-02-18T07:23:58.965Z,20.57
2019-02-18T07:26:35.948Z,16.97
2019-02-18T07:29:14.452Z,16.77
2019-02-18T07:31:46.383Z,18.53
2019-02-18T07:34:37.400Z,17.83
2019-02-18T07:37:09.084Z,16.10
2019-02-18T07:40:15.109Z,18.57
2019-02-18T07:43:04.789Z,18.27
2019-02-18T07:45:49.221Z,17.70
2019-02-18T07:49:06.299Z,19.03
2019-02-18T07:52:24.975Z,20.63
2019-02-18T07:54:58.551Z,17.53
2019-02-18T07:57:44.288Z,16.73
2019-02-18T08:01:25.222Z,16.47
2019-02-18T08:04:02.028Z,17.57
2019-02-18T08:06:39.550Z,16.00
2019-02-18T08:09:12.289Z,25.70
2019-02-18T08:11:55.764Z,16.53
2019-02-18T08:18:08.555Z,22.47
2019-02-18T08:20:42.462Z,17.73
2019-02-18T08:23:25.997Z,24.37
2019-02-18T08:26:15.777Z,20.00
2019-02-18T08:29:16.823Z,18.33
2019-02-18T08:32:05.503Z,18.30
2019-02-18T08:34:53.788Z,16.37
2019-02-18T08:37:33.975Z,19.57
2019-02-18T08:40:06.109Z,16.80
2019-02-18T08:42:40.866Z,16.00
2019-02-18T08:45:31.304Z,16.27
2019-02-18T08:51:58.250Z,16.13
2019-02-18T09:00:50.544Z,15.30
2019-02-18T09:03:21.855Z,17.57
2019-02-18T09:05:57.043Z,15.07
2019-02-18T09:09:16.408Z,20.63
2019-02-18T09:12:00.466Z,17.07
2019-02-18T09:17:47.359Z,21.23
2019-02-18T09:23:58.811Z,14.57
2019-02-18T09:26:35.813Z,16.33
2019-02-18T09:29:07.537Z,15.50
2019-02-18T09:31:45.983Z,18.00
2019-02-18T09:34:46.584Z,17.60
2019-02-18T09:37:27.560Z,27.27
2019-02-18T09:40:15.554Z,26.13
2019-02-18T09:42:51.563Z,17.43
2019-02-18T09:45:40.582Z,19.10
2019-02-18T09:48:32.957Z,21.93
2019-02-18T09:51:32.998Z,26.77
2019-02-18T09:54:51.242Z,17.83
2019-02-18T09:57:41.448Z,16.33
2019-02-18T10:00:33.859Z,32.50
2019-02-18T10:02:55.637Z,20.87
2019-02-18T10:05:48.181Z,17.13
2019-02-18T10:08:42.168Z,18.03
2019-02-18T10:11:26.402Z,18.57
2019-02-18T10:14:07.020Z,17.13
2019-02-18T10:16:44.266Z,16.00
2019-02-18T10:19:50.518Z,16.13
2019-02-18T10:22:27.054Z,19.77
2019-02-18T10:25:00.730Z,18.07
2019-02-18T10:27:31.999Z,15.00
2019-02-18T10:30:08.517Z,13.67
2019-02-18T10:33:15.378Z,17.20
2019-02-18T10:35:26.494Z,20.77
2019-02-18T10:38:02.637Z,16.83
2019-02-18T10:40:36.061Z,18.67
2019-02-18T10:43:12.700Z,19.83
2019-02-18T10:45:57.700Z,20.10
2019-02-18T10:49:19.765Z,23.10
2019-02-18T10:52:02.201Z,19.27
2019-02-18T10:55:16.516Z,27.90
2019-02-18T10:57:45.696Z,23.87
2019-02-18T11:00:21.553Z,18.33
2019-02-18T11:03:08.308Z,17.97
2019-02-18T11:05:46.136Z,18.63
2019-02-18T11:08:49.643Z,17.63
2019-02-18T11:11:23.908Z,16.30
2019-02-18T11:14:06.390Z,17.27
2019-02-18T11:16:48.250Z,17.80
2019-02-18T11:19:26.527Z,29.37
2019-02-18T11:22:00.844Z,22.20
2019-02-18T11:24:38.507Z,28.60
2019-02-18T11:27:12.003Z,22.00
2019-02-18T11:29:46.702Z,20.80
2019-02-18T11:32:34.611Z,18.47
2019-02-18T11:35:23.803Z,17.77
2019-02-18T11:38:00.254Z,20.57
2019-02-18T11:40:33.967Z,19.13
2019-02-18T11:43:47.533Z,25.80
2019-02-18T11:46:19.263Z,16.67
2019-02-18T11:48:50.431Z,20.10
2019-02-18T11:51:48.643Z,18.47
2019-02-18T11:54:24.465Z,20.70
2019-02-18T11:57:28.876Z,18.33
2019-02-18T12:00:00.699Z,20.37
2019-02-18T12:02:40.011Z,25.23
2019-02-18T12:05:52.523Z,21.50
2019-02-18T12:12:07.202Z,17.83
2019-02-18T12:14:49.074Z,17.90
2019-02-18T12:17:29.286Z,18.07
2019-02-18T12:20:06.700Z,18.57
2019-02-18T12:22:33.435Z,20.83
2019-02-18T12:25:04.967Z,21.03
2019-02-18T12:27:43.571Z,21.87
2019-02-18T12:30:23.237Z,20.63
2019-02-18T12:33:02.060Z,21.67
2019-02-18T12:38:58.327Z,19.03
2019-02-18T12:42:05.388Z,18.97
2019-02-18T12:44:55.513Z,18.43
2019-02-18T12:47:45.733Z,18.60
2019-02-18T12:50:47.437Z,21.43
2019-02-18T12:53:18.560Z,21.13
2019-02-18T12:56:02.089Z,20.87
2019-02-18T12:59:04.583Z,25.80
2019-02-18T13:01:57.648Z,22.17
2019-02-18T13:04:37.182Z,17.63
2019-02-18T13:07:14.064Z,20.17
2019-02-18T13:09:57.542Z,20.83
2019-02-18T13:13:09.833Z,26.10
2019-02-18T13:16:00.758Z,19.60
2019-02-18T13:22:49.847Z,18.37
2019-02-18T13:36:39.049Z,19.50
2019-02-18T13:43:20.997Z,19.53
2019-02-18T13:46:12.019Z,19.70
2019-02-18T13:58:02.731Z,33.87
2019-02-18T14:02:09.750Z,21.60
2019-02-18T14:04:20.960Z,48.40
2019-02-18T14:07:21.923Z,33.83
2019-02-18T14:08:29.557Z,20.23
2019-02-18T14:11:24.326Z,14.57
2019-02-18T14:16:26.198Z,27.27
2019-02-18T14:18:14.441Z,16.73
2019-02-18T14:19:46.184Z,16.87
2019-02-18T14:30:51.648Z,20.57
2019-02-18T14:37:34.988Z,30.57
2019-02-18T14:40:04.478Z,16.33
2019-02-18T14:46:43.578Z,14.97
2019-02-18T14:49:27.083Z,15.03
2019-02-18T14:52:31.129Z,14.73
2019-02-18T14:55:15.983Z,15.13
2019-02-18T14:57:48.591Z,15.63
2019-02-18T15:04:49.773Z,14.47
2019-02-18T15:11:13.701Z,12.80
2019-02-18T15:14:13.829Z,28.30
2019-02-18T15:17:06.152Z,23.10
2019-02-18T15:20:00.841Z,19.03
2019-02-18T15:23:27.740Z,19.70
2019-02-18T15:26:09.025Z,19.03
2019-02-18T15:28:55.883Z,19.03
2019-02-18T15:31:41.930Z,14.93
2019-02-18T15:34:49.275Z,18.97
2019-02-18T15:37:24.793Z,18.20
2019-02-18T15:40:11.145Z,19.03
2019-02-18T15:43:21.207Z,15.73
2019-02-18T15:46:03.144Z,18.97
2019-02-18T15:49:02.130Z,16.23
2019-02-18T15:52:10.274Z,18.17
2019-02-18T15:54:52.947Z,14.50
2019-02-18T15:57:39.540Z,17.57
2019-02-18T16:00:19.595Z,17.77
2019-02-18T16:06:34.748Z,12.70
2019-02-18T16:09:15.249Z,22.77
2019-02-18T16:11:52.427Z,18.07
2019-02-18T16:14:23.070Z,16.47
2019-02-18T16:16:56.034Z,18.37
2019-02-18T16:19:26.521Z,18.30
2019-02-18T16:21:56.903Z,15.73
2019-02-18T16:24:27.223Z,16.83
2019-02-18T16:26:58.187Z,17.53
2019-02-18T16:29:28.852Z,18.30
2019-02-18T16:32:01.860Z,21.07
2019-02-18T16:34:33.994Z,17.87
2019-02-18T16:37:22.310Z,21.03
2019-02-18T16:39:52.897Z,24.57
2019-02-18T16:42:25.575Z,23.27
2019-02-18T16:44:56.864Z,32.63
2019-02-18T16:47:27.381Z,27.17
2019-02-18T16:49:57.877Z,23.73
2019-02-18T16:52:28.651Z,25.03
2019-02-18T16:54:59.142Z,26.73
2019-02-18T16:57:29.500Z,23.47
2019-02-18T17:00:00.002Z,29.93
2019-02-18T17:02:30.710Z,28.33
2019-02-18T17:05:04.634Z,29.10
2019-02-18T17:07:35.110Z,24.50
2019-02-18T17:10:05.764Z,29.87
2019-02-18T17:12:37.936Z,30.77
2019-02-18T17:15:09.146Z,24.93
2019-02-18T17:17:41.839Z,24.47
2019-02-18T17:20:13.590Z,25.63
2019-02-18T17:22:44.318Z,28.70
2019-02-18T17:25:14.894Z,26.50
2019-02-18T17:27:46.201Z,24.97
2019-02-18T17:30:16.958Z,32.07
2019-02-18T17:32:47.549Z,25.57
2019-02-18T17:35:17.977Z,30.87
2019-02-18T17:37:49.843Z,30.37
2019-02-18T17:40:23.301Z,30.63
2019-02-18T17:42:55.013Z,28.77
2019-02-18T17:45:36.190Z,29.33
2019-02-18T17:48:13.469Z,27.47
2019-02-18T17:50:45.345Z,27.37
2019-02-18T17:53:15.786Z,32.87
2019-02-18T17:55:49.439Z,35.07
2019-02-18T17:58:20.492Z,31.67
2019-02-18T18:00:54.112Z,33.87
2019-02-18T18:03:25.235Z,38.23
2019-02-18T18:05:56.032Z,29.93
2019-02-18T18:08:35.852Z,38.80
2019-02-18T18:11:07.656Z,33.90
2019-02-18T18:13:38.506Z,32.97
2019-02-18T18:16:09.387Z,34.93
2019-02-18T18:18:42.703Z,30.73
2019-02-18T18:21:13.167Z,39.07
2019-02-18T18:23:43.692Z,37.30
2019-02-18T18:26:14.132Z,38.97
2019-02-18T18:28:47.417Z,37.30
2019-02-18T18:31:22.238Z,36.23
2019-02-18T18:33:56.975Z,36.10
2019-02-18T18:36:29.096Z,34.50
2019-02-18T18:38:59.577Z,31.53
2019-02-18T18:41:29.856Z,29.03
2019-02-18T18:44:02.461Z,30.07
2019-02-18T18:46:33.600Z,29.60
2019-02-18T18:49:22.027Z,24.07
2019-02-18T18:51:57.921Z,23.87
2019-02-18T18:54:28.366Z,28.67
2019-02-18T18:56:59.409Z,18.73
2019-02-18T18:59:30.301Z,19.63
2019-02-18T19:02:00.606Z,20.13
2019-02-18T19:04:34.426Z,19.20
2019-02-18T19:07:05.374Z,20.23
2019-02-18T19:09:37.077Z,16.53
2019-02-18T19:12:10.640Z,14.73
2019-02-18T19:14:42.351Z,27.30
2019-02-18T19:17:24.009Z,38.07
2019-02-18T19:20:02.287Z,40.30
2019-02-18T19:22:32.696Z,36.83
2019-02-18T19:25:11.543Z,24.40
2019-02-18T19:27:49.827Z,22.10
2019-02-18T19:30:23.635Z,20.50
2019-02-18T19:32:57.520Z,24.87
2019-02-18T19:35:35.164Z,22.07
2019-02-18T19:38:05.614Z,30.20
2019-02-18T19:40:35.984Z,18.30
2019-02-18T19:43:06.771Z,16.77
2019-02-18T19:45:37.297Z,16.70
2019-02-18T19:48:08.149Z,22.40
2019-02-18T19:50:38.553Z,16.70
2019-02-18T19:53:12.575Z,18.23
2019-02-18T19:55:58.457Z,18.23
2019-02-18T19:58:39.043Z,20.57
2019-02-18T20:01:10.561Z,16.87
2019-02-18T20:03:44.338Z,16.87
2019-02-18T20:06:20.330Z,17.00
2019-02-18T20:08:48.029Z,17.37
2019-02-18T20:11:34.929Z,17.10
2019-02-18T20:14:10.071Z,16.43
2019-02-18T20:16:40.538Z,11.17
2019-02-18T20:19:14.088Z,12.37
2019-02-18T20:21:44.605Z,17.37
2019-02-18T20:25:04.108Z,12.70
2019-02-18T20:27:47.920Z,14.67
2019-02-18T20:30:18.519Z,14.90
2019-02-18T20:32:59.754Z,17.70
2019-02-18T20:35:30.221Z,14.83
2019-02-18T20:38:02.511Z,13.30
2019-02-18T20:40:39.142Z,12.97
2019-02-18T20:43:10.178Z,13.73
2019-02-18T20:45:46.516Z,11.30
2019-02-18T20:48:20.216Z,19.17
2019-02-18T20:50:58.707Z,12.27
2019-02-18T20:53:33.287Z,15.07
2019-02-18T20:56:04.998Z,15.70
2019-02-18T20:58:36.443Z,13.80
2019-02-18T21:01:06.906Z,12.40
2019-02-18T21:03:37.366Z,15.20
2019-02-18T21:06:07.742Z,16.40
2019-02-18T21:08:38.242Z,14.73
2019-02-18T21:11:08.668Z,14.23
2019-02-18T21:13:39.508Z,14.67
2019-02-18T21:16:10.668Z,15.33
2019-02-18T21:18:41.159Z,15.70
2019-02-18T21:21:12.331Z,22.47
2019-02-18T21:23:42.769Z,13.77
2019-02-18T21:26:13.895Z,18.57
2019-02-18T21:28:44.329Z,17.43
2019-02-18T21:31:14.739Z,17.10
2019-02-18T21:33:45.121Z,14.43
2019-02-18T21:36:15.603Z,17.17
2019-02-18T21:38:46.569Z,15.17
2019-02-18T21:41:19.426Z,15.27
2019-02-18T21:43:49.901Z,14.67
2019-02-18T21:46:24.215Z,18.07
2019-02-18T21:48:54.696Z,14.53
2019-02-18T21:51:25.027Z,13.20
2019-02-18T21:53:55.422Z,17.07
2019-02-18T21:56:26.459Z,16.87
2019-02-18T21:58:57.283Z,14.17
2019-02-18T22:01:27.924Z,14.60
2019-02-18T22:04:02.821Z,18.67
2019-02-18T22:06:33.220Z,15.43
2019-02-18T22:09:05.577Z,16.90
2019-02-18T22:11:36.193Z,15.73
2019-02-18T22:14:06.700Z,14.43
2019-02-18T22:16:37.110Z,17.90
2019-02-18T22:19:09.978Z,14.13
2019-02-18T22:21:40.355Z,13.37
2019-02-18T22:24:10.733Z,12.77
2019-02-18T22:26:41.039Z,16.37
2019-02-18T22:29:11.759Z,22.90
2019-02-18T22:31:42.155Z,16.27
2019-02-18T22:34:14.937Z,16.47
2019-02-18T22:36:48.543Z,17.10
2019-02-18T22:39:18.974Z,16.17
2019-02-18T22:41:49.698Z,12.80
2019-02-18T22:44:26.518Z,17.03
2019-02-18T22:46:57.140Z,18.17
2019-02-18T22:49:29.889Z,16.33
2019-02-18T22:52:00.318Z,17.37
2019-02-18T22:54:30.883Z,15.90
2019-02-18T22:57:03.596Z,15.13
2019-02-18T22:59:34.911Z,15.13
2019-02-18T23:02:08.803Z,19.37
2019-02-18T23:04:39.405Z,15.70
2019-02-18T23:07:17.270Z,18.87
2019-02-18T23:09:49.851Z,15.97
2019-02-18T23:12:23.676Z,14.57
2019-02-18T23:14:54.103Z,28.97
2019-02-18T23:17:24.902Z,16.77
2019-02-18T23:19:55.278Z,27.77
2019-02-18T23:22:26.554Z,13.63
2019-02-18T23:24:57.609Z,15.23
2019-02-18T23:27:28.018Z,16.07
2019-02-18T23:29:58.338Z,16.27
2019-02-18T23:32:29.049Z,17.37
2019-02-18T23:35:00.564Z,14.03
2019-02-18T23:37:31.797Z,15.57
2019-02-18T23:40:02.220Z,17.90
2019-02-18T23:42:32.628Z,16.47
2019-02-18T23:45:04.341Z,13.83
2019-02-18T23:47:36.769Z,18.33
2019-02-18T23:50:10.390Z,15.37
2019-02-18T23:52:42.414Z,16.60
2019-02-18T23:55:13.131Z,23.50
2019-02-18T23:57:43.686Z,27.57
